sensor_id;sensor_type;location;lat;lon;timestamp;temperature;humidity
15900;DHT22;8048;50.644;6.184;2023-09-07T00:01:45;18.90;94.50
15900;DHT22;8048;50.644;6.184;2023-09-07T00:04:10;18.90;94.40
15900;DHT22;8048;50.644;6.184;2023-09-07T00:06:39;18.90;94.40
15900;DHT22;8048;50.644;6.184;2023-09-07T00:09:05;18.90;94.20
15900;DHT22;8048;50.644;6.184;2023-09-07T00:11:32;19.00;94.20
15900;DHT22;8048;50.644;6.184;2023-09-07T00:13:58;18.90;94.10
15900;DHT22;8048;50.644;6.184;2023-09-07T00:16:24;19.00;94.00
15900;DHT22;8048;50.644;6.184;2023-09-07T00:18:50;19.00;93.90
15900;DHT22;8048;50.644;6.184;2023-09-07T00:21:16;19.10;93.90
15900;DHT22;8048;50.644;6.184;2023-09-07T00:23:41;19.10;93.80
15900;DHT22;8048;50.644;6.184;2023-09-07T00:26:07;19.00;93.70
15900;DHT22;8048;50.644;6.184;2023-09-07T00:28:33;19.10;93.80
15900;DHT22;8048;50.644;6.184;2023-09-07T00:30:59;19.10;93.70
15900;DHT22;8048;50.644;6.184;2023-09-07T00:33:24;19.00;93.80
15900;DHT22;8048;50.644;6.184;2023-09-07T00:35:50;19.10;93.80
15900;DHT22;8048;50.644;6.184;2023-09-07T00:38:15;19.00;93.70
15900;DHT22;8048;50.644;6.184;2023-09-07T00:40:44;19.10;93.90
15900;DHT22;8048;50.644;6.184;2023-09-07T00:43:12;19.10;93.70
15900;DHT22;8048;50.644;6.184;2023-09-07T00:45:39;19.10;93.70
15900;DHT22;8048;50.644;6.184;2023-09-07T00:48:05;19.10;93.70
15900;DHT22;8048;50.644;6.184;2023-09-07T00:50:31;19.10;93.70
15900;DHT22;8048;50.644;6.184;2023-09-07T00:52:58;19.10;93.60
15900;DHT22;8048;50.644;6.184;2023-09-07T00:55:24;19.10;93.60
15900;DHT22;8048;50.644;6.184;2023-09-07T00:57:50;19.10;93.40
15900;DHT22;8048;50.644;6.184;2023-09-07T01:00:16;19.10;93.50
15900;DHT22;8048;50.644;6.184;2023-09-07T01:02:41;19.00;93.50
15900;DHT22;8048;50.644;6.184;2023-09-07T01:05:10;19.00;93.50
15900;DHT22;8048;50.644;6.184;2023-09-07T01:07:40;19.00;93.60
15900;DHT22;8048;50.644;6.184;2023-09-07T01:10:08;19.00;93.60
15900;DHT22;8048;50.644;6.184;2023-09-07T01:12:33;19.00;93.50
15900;DHT22;8048;50.644;6.184;2023-09-07T01:14:59;19.00;93.60
15900;DHT22;8048;50.644;6.184;2023-09-07T01:17:25;19.00;93.60
15900;DHT22;8048;50.644;6.184;2023-09-07T01:19:52;19.00;93.50
15900;DHT22;8048;50.644;6.184;2023-09-07T01:22:21;18.90;93.50
15900;DHT22;8048;50.644;6.184;2023-09-07T01:24:51;19.00;93.50
15900;DHT22;8048;50.644;6.184;2023-09-07T01:27:18;18.90;93.40
15900;DHT22;8048;50.644;6.184;2023-09-07T01:29:44;18.90;93.50
15900;DHT22;8048;50.644;6.184;2023-09-07T01:32:10;18.90;93.60
15900;DHT22;8048;50.644;6.184;2023-09-07T01:34:36;18.80;93.50
15900;DHT22;8048;50.644;6.184;2023-09-07T01:37:01;18.80;93.60
15900;DHT22;8048;50.644;6.184;2023-09-07T01:39:27;18.70;93.50
15900;DHT22;8048;50.644;6.184;2023-09-07T01:41:52;18.70;93.60
15900;DHT22;8048;50.644;6.184;2023-09-07T01:44:18;18.70;93.60
15900;DHT22;8048;50.644;6.184;2023-09-07T01:46:43;18.70;93.60
15900;DHT22;8048;50.644;6.184;2023-09-07T01:49:09;18.60;93.60
15900;DHT22;8048;50.644;6.184;2023-09-07T01:51:34;18.70;93.50
15900;DHT22;8048;50.644;6.184;2023-09-07T01:54:00;18.70;93.30
15900;DHT22;8048;50.644;6.184;2023-09-07T01:56:26;18.70;93.20
15900;DHT22;8048;50.644;6.184;2023-09-07T01:58:52;18.80;93.00
15900;DHT22;8048;50.644;6.184;2023-09-07T02:01:24;18.80;92.90
15900;DHT22;8048;50.644;6.184;2023-09-07T02:03:50;18.70;92.90
15900;DHT22;8048;50.644;6.184;2023-09-07T02:06:16;18.80;92.60
15900;DHT22;8048;50.644;6.184;2023-09-07T02:08:42;18.80;92.60
15900;DHT22;8048;50.644;6.184;2023-09-07T02:11:08;18.90;92.40
15900;DHT22;8048;50.644;6.184;2023-09-07T02:13:33;18.80;92.40
15900;DHT22;8048;50.644;6.184;2023-09-07T02:16:03;18.90;92.30
15900;DHT22;8048;50.644;6.184;2023-09-07T02:18:29;18.90;92.20
15900;DHT22;8048;50.644;6.184;2023-09-07T02:20:54;18.90;92.00
15900;DHT22;8048;50.644;6.184;2023-09-07T02:23:20;18.90;92.00
15900;DHT22;8048;50.644;6.184;2023-09-07T02:25:45;18.90;92.00
15900;DHT22;8048;50.644;6.184;2023-09-07T02:28:11;19.00;92.00
15900;DHT22;8048;50.644;6.184;2023-09-07T02:30:36;18.90;91.70
15900;DHT22;8048;50.644;6.184;2023-09-07T02:33:02;18.90;91.60
15900;DHT22;8048;50.644;6.184;2023-09-07T02:35:29;18.90;91.50
15900;DHT22;8048;50.644;6.184;2023-09-07T02:37:56;18.90;91.40
15900;DHT22;8048;50.644;6.184;2023-09-07T02:40:22;18.90;91.50
15900;DHT22;8048;50.644;6.184;2023-09-07T02:42:48;18.90;91.30
15900;DHT22;8048;50.644;6.184;2023-09-07T02:45:14;18.80;91.30
15900;DHT22;8048;50.644;6.184;2023-09-07T02:47:40;18.80;91.20
15900;DHT22;8048;50.644;6.184;2023-09-07T02:50:05;18.90;91.00
15900;DHT22;8048;50.644;6.184;2023-09-07T02:52:31;18.90;91.00
15900;DHT22;8048;50.644;6.184;2023-09-07T02:54:57;18.90;90.80
15900;DHT22;8048;50.644;6.184;2023-09-07T02:57:22;19.00;90.80
15900;DHT22;8048;50.644;6.184;2023-09-07T02:59:48;19.00;90.60
15900;DHT22;8048;50.644;6.184;2023-09-07T03:02:13;19.00;90.50
15900;DHT22;8048;50.644;6.184;2023-09-07T03:04:39;18.90;90.60
15900;DHT22;8048;50.644;6.184;2023-09-07T03:07:04;18.90;90.40
15900;DHT22;8048;50.644;6.184;2023-09-07T03:09:30;18.90;90.40
15900;DHT22;8048;50.644;6.184;2023-09-07T03:11:55;19.00;90.40
15900;DHT22;8048;50.644;6.184;2023-09-07T03:14:21;18.90;90.30
15900;DHT22;8048;50.644;6.184;2023-09-07T03:16:47;18.90;90.40
15900;DHT22;8048;50.644;6.184;2023-09-07T03:19:15;18.90;90.40
15900;DHT22;8048;50.644;6.184;2023-09-07T03:21:41;18.90;90.50
15900;DHT22;8048;50.644;6.184;2023-09-07T03:24:07;18.90;90.40
15900;DHT22;8048;50.644;6.184;2023-09-07T03:26:32;19.00;90.40
15900;DHT22;8048;50.644;6.184;2023-09-07T03:28:58;19.00;90.40
15900;DHT22;8048;50.644;6.184;2023-09-07T03:31:23;19.00;90.40
15900;DHT22;8048;50.644;6.184;2023-09-07T03:33:49;19.00;90.50
15900;DHT22;8048;50.644;6.184;2023-09-07T03:36:15;19.10;90.20
15900;DHT22;8048;50.644;6.184;2023-09-07T03:38:41;19.20;90.20
15900;DHT22;8048;50.644;6.184;2023-09-07T03:41:07;19.20;90.00
15900;DHT22;8048;50.644;6.184;2023-09-07T03:43:32;19.30;89.80
15900;DHT22;8048;50.644;6.184;2023-09-07T03:45:58;19.30;89.90
15900;DHT22;8048;50.644;6.184;2023-09-07T03:48:23;19.30;89.60
15900;DHT22;8048;50.644;6.184;2023-09-07T03:50:49;19.30;89.50
15900;DHT22;8048;50.644;6.184;2023-09-07T03:53:15;19.30;89.30
15900;DHT22;8048;50.644;6.184;2023-09-07T03:55:41;19.20;89.70
15900;DHT22;8048;50.644;6.184;2023-09-07T03:58:09;19.20;89.50
15900;DHT22;8048;50.644;6.184;2023-09-07T04:00:37;19.20;89.40
15900;DHT22;8048;50.644;6.184;2023-09-07T04:03:03;19.20;89.30
15900;DHT22;8048;50.644;6.184;2023-09-07T04:05:28;19.20;89.10
15900;DHT22;8048;50.644;6.184;2023-09-07T04:07:54;19.20;89.20
15900;DHT22;8048;50.644;6.184;2023-09-07T04:10:19;19.20;89.30
15900;DHT22;8048;50.644;6.184;2023-09-07T04:12:45;19.20;89.30
15900;DHT22;8048;50.644;6.184;2023-09-07T04:15:10;19.20;89.20
15900;DHT22;8048;50.644;6.184;2023-09-07T04:17:37;19.10;89.30
15900;DHT22;8048;50.644;6.184;2023-09-07T04:20:06;19.10;89.30
15900;DHT22;8048;50.644;6.184;2023-09-07T04:22:33;19.10;89.40
15900;DHT22;8048;50.644;6.184;2023-09-07T04:24:58;19.00;89.50
15900;DHT22;8048;50.644;6.184;2023-09-07T04:27:24;19.00;89.60
15900;DHT22;8048;50.644;6.184;2023-09-07T04:29:49;19.10;89.70
15900;DHT22;8048;50.644;6.184;2023-09-07T04:32:15;19.00;89.90
15900;DHT22;8048;50.644;6.184;2023-09-07T04:34:40;19.00;90.10
15900;DHT22;8048;50.644;6.184;2023-09-07T04:37:06;19.00;90.20
15900;DHT22;8048;50.644;6.184;2023-09-07T04:39:31;19.00;90.20
15900;DHT22;8048;50.644;6.184;2023-09-07T04:41:57;19.00;90.20
15900;DHT22;8048;50.644;6.184;2023-09-07T04:44:22;19.00;90.50
15900;DHT22;8048;50.644;6.184;2023-09-07T04:46:48;19.00;90.60
15900;DHT22;8048;50.644;6.184;2023-09-07T04:49:15;19.00;90.70
15900;DHT22;8048;50.644;6.184;2023-09-07T04:51:40;19.00;90.70
15900;DHT22;8048;50.644;6.184;2023-09-07T04:54:06;19.00;90.90
15900;DHT22;8048;50.644;6.184;2023-09-07T04:56:32;19.00;90.90
15900;DHT22;8048;50.644;6.184;2023-09-07T04:58:57;18.90;91.10
15900;DHT22;8048;50.644;6.184;2023-09-07T05:01:23;19.00;91.10
15900;DHT22;8048;50.644;6.184;2023-09-07T05:03:49;18.90;91.20
15900;DHT22;8048;50.644;6.184;2023-09-07T05:06:16;18.90;91.30
15900;DHT22;8048;50.644;6.184;2023-09-07T05:08:42;18.90;91.20
15900;DHT22;8048;50.644;6.184;2023-09-07T05:11:07;18.90;91.30
15900;DHT22;8048;50.644;6.184;2023-09-07T05:13:33;18.90;91.30
15900;DHT22;8048;50.644;6.184;2023-09-07T05:15:59;18.90;91.40
15900;DHT22;8048;50.644;6.184;2023-09-07T05:18:28;18.90;91.40
15900;DHT22;8048;50.644;6.184;2023-09-07T05:20:53;18.90;91.50
15900;DHT22;8048;50.644;6.184;2023-09-07T05:23:20;18.90;91.30
15900;DHT22;8048;50.644;6.184;2023-09-07T05:25:48;18.90;91.50
15900;DHT22;8048;50.644;6.184;2023-09-07T05:28:15;18.90;91.50
15900;DHT22;8048;50.644;6.184;2023-09-07T05:30:41;18.90;91.60
15900;DHT22;8048;50.644;6.184;2023-09-07T05:33:11;18.80;91.60
15900;DHT22;8048;50.644;6.184;2023-09-07T05:35:37;18.80;91.50
15900;DHT22;8048;50.644;6.184;2023-09-07T05:38:03;18.80;91.80
15900;DHT22;8048;50.644;6.184;2023-09-07T05:40:29;18.90;91.60
15900;DHT22;8048;50.644;6.184;2023-09-07T05:42:55;18.90;91.70
15900;DHT22;8048;50.644;6.184;2023-09-07T05:45:21;18.90;91.70
15900;DHT22;8048;50.644;6.184;2023-09-07T05:47:46;18.90;91.70
15900;DHT22;8048;50.644;6.184;2023-09-07T05:50:12;19.00;91.80
15900;DHT22;8048;50.644;6.184;2023-09-07T05:52:37;19.00;91.80
15900;DHT22;8048;50.644;6.184;2023-09-07T05:55:03;19.00;91.70
15900;DHT22;8048;50.644;6.184;2023-09-07T05:57:29;19.10;91.60
15900;DHT22;8048;50.644;6.184;2023-09-07T05:59:54;19.10;91.50
15900;DHT22;8048;50.644;6.184;2023-09-07T06:02:20;19.20;91.60
15900;DHT22;8048;50.644;6.184;2023-09-07T06:04:46;19.20;91.50
15900;DHT22;8048;50.644;6.184;2023-09-07T06:07:11;19.30;91.50
15900;DHT22;8048;50.644;6.184;2023-09-07T06:09:37;19.40;91.60
15900;DHT22;8048;50.644;6.184;2023-09-07T06:12:03;19.40;91.60
15900;DHT22;8048;50.644;6.184;2023-09-07T06:14:28;19.50;91.40
15900;DHT22;8048;50.644;6.184;2023-09-07T06:16:54;19.50;91.50
15900;DHT22;8048;50.644;6.184;2023-09-07T06:19:19;19.60;91.50
15900;DHT22;8048;50.644;6.184;2023-09-07T06:21:45;19.70;91.50
15900;DHT22;8048;50.644;6.184;2023-09-07T06:24:11;19.80;91.50
15900;DHT22;8048;50.644;6.184;2023-09-07T06:26:36;19.80;91.40
15900;DHT22;8048;50.644;6.184;2023-09-07T06:29:02;19.90;91.60
15900;DHT22;8048;50.644;6.184;2023-09-07T06:31:27;19.90;91.50
15900;DHT22;8048;50.644;6.184;2023-09-07T06:33:54;19.90;91.50
15900;DHT22;8048;50.644;6.184;2023-09-07T06:36:19;20.00;91.60
15900;DHT22;8048;50.644;6.184;2023-09-07T06:38:45;20.10;91.30
15900;DHT22;8048;50.644;6.184;2023-09-07T06:41:10;20.20;91.30
15900;DHT22;8048;50.644;6.184;2023-09-07T06:43:37;20.30;91.20
15900;DHT22;8048;50.644;6.184;2023-09-07T06:46:06;20.30;91.20
15900;DHT22;8048;50.644;6.184;2023-09-07T06:48:32;20.40;91.20
15900;DHT22;8048;50.644;6.184;2023-09-07T06:51:04;20.50;91.10
15900;DHT22;8048;50.644;6.184;2023-09-07T06:53:30;20.50;91.00
15900;DHT22;8048;50.644;6.184;2023-09-07T06:56:03;20.60;91.10
15900;DHT22;8048;50.644;6.184;2023-09-07T06:58:29;20.60;91.20
15900;DHT22;8048;50.644;6.184;2023-09-07T07:00:58;20.70;91.20
15900;DHT22;8048;50.644;6.184;2023-09-07T07:03:28;20.80;91.30
15900;DHT22;8048;50.644;6.184;2023-09-07T07:05:54;21.00;91.20
15900;DHT22;8048;50.644;6.184;2023-09-07T07:08:19;21.00;91.20
15900;DHT22;8048;50.644;6.184;2023-09-07T07:10:45;21.10;91.30
15900;DHT22;8048;50.644;6.184;2023-09-07T07:13:11;21.30;91.00
15900;DHT22;8048;50.644;6.184;2023-09-07T07:15:36;21.30;91.00
15900;DHT22;8048;50.644;6.184;2023-09-07T07:18:02;21.40;91.20
15900;DHT22;8048;50.644;6.184;2023-09-07T07:20:43;21.50;90.90
15900;DHT22;8048;50.644;6.184;2023-09-07T07:23:11;21.60;91.00
15900;DHT22;8048;50.644;6.184;2023-09-07T07:25:38;21.70;91.00
15900;DHT22;8048;50.644;6.184;2023-09-07T07:28:04;21.80;90.90
15900;DHT22;8048;50.644;6.184;2023-09-07T07:30:39;21.90;90.80
15900;DHT22;8048;50.644;6.184;2023-09-07T07:33:08;21.90;91.00
15900;DHT22;8048;50.644;6.184;2023-09-07T07:35:34;22.00;90.90
15900;DHT22;8048;50.644;6.184;2023-09-07T07:38:03;22.20;90.70
15900;DHT22;8048;50.644;6.184;2023-09-07T07:40:33;22.30;90.70
15900;DHT22;8048;50.644;6.184;2023-09-07T07:42:58;22.30;90.80
15900;DHT22;8048;50.644;6.184;2023-09-07T07:45:24;22.40;90.90
15900;DHT22;8048;50.644;6.184;2023-09-07T07:47:50;22.40;90.70
15900;DHT22;8048;50.644;6.184;2023-09-07T07:50:16;22.50;90.70
15900;DHT22;8048;50.644;6.184;2023-09-07T07:52:42;22.60;90.80
15900;DHT22;8048;50.644;6.184;2023-09-07T07:55:08;22.60;90.40
15900;DHT22;8048;50.644;6.184;2023-09-07T07:57:34;22.80;90.70
15900;DHT22;8048;50.644;6.184;2023-09-07T08:00:00;22.90;90.50
15900;DHT22;8048;50.644;6.184;2023-09-07T08:02:26;22.90;90.20
15900;DHT22;8048;50.644;6.184;2023-09-07T08:04:51;23.10;89.60
15900;DHT22;8048;50.644;6.184;2023-09-07T08:07:17;23.20;89.60
15900;DHT22;8048;50.644;6.184;2023-09-07T08:09:42;23.30;89.10
15900;DHT22;8048;50.644;6.184;2023-09-07T08:12:08;23.40;89.10
15900;DHT22;8048;50.644;6.184;2023-09-07T08:14:35;23.50;88.60
15900;DHT22;8048;50.644;6.184;2023-09-07T08:17:00;23.60;87.90
15900;DHT22;8048;50.644;6.184;2023-09-07T08:19:27;23.70;88.00
15900;DHT22;8048;50.644;6.184;2023-09-07T08:21:55;23.80;88.30
15900;DHT22;8048;50.644;6.184;2023-09-07T08:24:21;24.00;87.00
15900;DHT22;8048;50.644;6.184;2023-09-07T08:26:46;24.10;86.80
15900;DHT22;8048;50.644;6.184;2023-09-07T08:29:17;24.20;86.10
15900;DHT22;8048;50.644;6.184;2023-09-07T08:31:42;24.40;86.10
15900;DHT22;8048;50.644;6.184;2023-09-07T08:34:10;24.40;84.60
15900;DHT22;8048;50.644;6.184;2023-09-07T08:36:37;24.50;86.50
15900;DHT22;8048;50.644;6.184;2023-09-07T08:39:03;24.70;86.00
15900;DHT22;8048;50.644;6.184;2023-09-07T08:41:37;24.90;84.20
15900;DHT22;8048;50.644;6.184;2023-09-07T08:44:08;25.00;84.70
15900;DHT22;8048;50.644;6.184;2023-09-07T08:46:34;25.10;84.00
15900;DHT22;8048;50.644;6.184;2023-09-07T08:49:00;25.30;83.10
15900;DHT22;8048;50.644;6.184;2023-09-07T08:51:27;25.30;83.10
15900;DHT22;8048;50.644;6.184;2023-09-07T08:54:00;25.50;82.10
15900;DHT22;8048;50.644;6.184;2023-09-07T08:56:26;25.60;81.50
15900;DHT22;8048;50.644;6.184;2023-09-07T08:58:51;25.60;81.60
15900;DHT22;8048;50.644;6.184;2023-09-07T09:01:17;25.80;80.80
15900;DHT22;8048;50.644;6.184;2023-09-07T09:03:43;26.00;82.00
15900;DHT22;8048;50.644;6.184;2023-09-07T09:06:12;26.20;80.00
15900;DHT22;8048;50.644;6.184;2023-09-07T09:08:46;26.40;78.80
15900;DHT22;8048;50.644;6.184;2023-09-07T09:11:15;26.30;77.00
15900;DHT22;8048;50.644;6.184;2023-09-07T09:13:41;26.40;77.70
15900;DHT22;8048;50.644;6.184;2023-09-07T09:16:08;26.50;77.50
15900;DHT22;8048;50.644;6.184;2023-09-07T09:18:33;26.70;79.10
15900;DHT22;8048;50.644;6.184;2023-09-07T09:20:59;27.00;78.80
15900;DHT22;8048;50.644;6.184;2023-09-07T09:23:36;27.30;75.50
15900;DHT22;8048;50.644;6.184;2023-09-07T09:26:03;27.30;75.10
15900;DHT22;8048;50.644;6.184;2023-09-07T09:28:34;27.50;75.00
15900;DHT22;8048;50.644;6.184;2023-09-07T09:31:01;27.60;75.90
15900;DHT22;8048;50.644;6.184;2023-09-07T09:33:30;27.90;79.90
15900;DHT22;8048;50.644;6.184;2023-09-07T09:35:56;28.10;71.50
15900;DHT22;8048;50.644;6.184;2023-09-07T09:38:23;28.00;69.50
15900;DHT22;8048;50.644;6.184;2023-09-07T09:40:49;28.00;70.80
15900;DHT22;8048;50.644;6.184;2023-09-07T09:43:15;28.30;74.00
15900;DHT22;8048;50.644;6.184;2023-09-07T09:45:41;28.50;71.10
15900;DHT22;8048;50.644;6.184;2023-09-07T09:48:07;28.60;72.70
15900;DHT22;8048;50.644;6.184;2023-09-07T09:50:33;28.80;70.40
15900;DHT22;8048;50.644;6.184;2023-09-07T09:53:07;28.90;70.50
15900;DHT22;8048;50.644;6.184;2023-09-07T09:55:36;28.80;71.90
15900;DHT22;8048;50.644;6.184;2023-09-07T09:58:02;29.00;69.10
15900;DHT22;8048;50.644;6.184;2023-09-07T10:00:28;29.10;69.70
15900;DHT22;8048;50.644;6.184;2023-09-07T10:03:05;29.40;69.80
15900;DHT22;8048;50.644;6.184;2023-09-07T10:05:32;29.40;67.20
15900;DHT22;8048;50.644;6.184;2023-09-07T10:08:12;29.60;65.60
15900;DHT22;8048;50.644;6.184;2023-09-07T10:10:40;29.60;64.60
15900;DHT22;8048;50.644;6.184;2023-09-07T10:13:06;29.60;65.30
15900;DHT22;8048;50.644;6.184;2023-09-07T10:15:33;29.70;63.90
15900;DHT22;8048;50.644;6.184;2023-09-07T10:18:14;29.70;64.60
15900;DHT22;8048;50.644;6.184;2023-09-07T10:20:53;29.20;64.40
15900;DHT22;8048;50.644;6.184;2023-09-07T10:23:19;29.10;66.40
15900;DHT22;8048;50.644;6.184;2023-09-07T10:25:50;29.20;65.50
15900;DHT22;8048;50.644;6.184;2023-09-07T10:28:23;29.30;65.80
15900;DHT22;8048;50.644;6.184;2023-09-07T10:33:29;30.00;66.50
15900;DHT22;8048;50.644;6.184;2023-09-07T10:35:55;30.30;65.00
15900;DHT22;8048;50.644;6.184;2023-09-07T10:38:22;30.40;64.30
15900;DHT22;8048;50.644;6.184;2023-09-07T10:40:48;30.40;63.70
15900;DHT22;8048;50.644;6.184;2023-09-07T10:43:14;30.70;68.70
15900;DHT22;8048;50.644;6.184;2023-09-07T10:45:44;30.90;64.20
15900;DHT22;8048;50.644;6.184;2023-09-07T10:48:10;31.20;66.00
15900;DHT22;8048;50.644;6.184;2023-09-07T10:50:44;31.70;63.90
15900;DHT22;8048;50.644;6.184;2023-09-07T10:53:12;32.00;62.20
15900;DHT22;8048;50.644;6.184;2023-09-07T10:55:38;32.20;64.30
15900;DHT22;8048;50.644;6.184;2023-09-07T10:58:09;32.30;62.40
15900;DHT22;8048;50.644;6.184;2023-09-07T11:00:36;32.10;59.40
15900;DHT22;8048;50.644;6.184;2023-09-07T11:03:08;32.10;61.90
15900;DHT22;8048;50.644;6.184;2023-09-07T11:05:37;32.30;61.80
15900;DHT22;8048;50.644;6.184;2023-09-07T11:08:06;32.70;63.90
15900;DHT22;8048;50.644;6.184;2023-09-07T11:10:33;33.00;62.70
15900;DHT22;8048;50.644;6.184;2023-09-07T11:13:04;33.20;62.20
15900;DHT22;8048;50.644;6.184;2023-09-07T11:15:31;33.40;58.70
15900;DHT22;8048;50.644;6.184;2023-09-07T11:18:03;33.40;57.30
15900;DHT22;8048;50.644;6.184;2023-09-07T11:20:29;33.40;60.00
15900;DHT22;8048;50.644;6.184;2023-09-07T11:22:55;33.70;59.50
15900;DHT22;8048;50.644;6.184;2023-09-07T11:25:20;33.60;56.40
15900;DHT22;8048;50.644;6.184;2023-09-07T11:27:46;33.70;57.00
15900;DHT22;8048;50.644;6.184;2023-09-07T11:30:12;33.70;56.80
15900;DHT22;8048;50.644;6.184;2023-09-07T11:32:37;33.50;58.50
15900;DHT22;8048;50.644;6.184;2023-09-07T11:35:04;34.00;60.30
15900;DHT22;8048;50.644;6.184;2023-09-07T11:37:32;34.50;59.00
15900;DHT22;8048;50.644;6.184;2023-09-07T11:39:58;34.70;56.70
15900;DHT22;8048;50.644;6.184;2023-09-07T11:42:23;34.70;58.30
15900;DHT22;8048;50.644;6.184;2023-09-07T11:44:49;34.90;58.30
15900;DHT22;8048;50.644;6.184;2023-09-07T11:47:15;35.00;55.10
15900;DHT22;8048;50.644;6.184;2023-09-07T11:49:40;35.20;55.40
15900;DHT22;8048;50.644;6.184;2023-09-07T11:52:06;35.40;55.30
15900;DHT22;8048;50.644;6.184;2023-09-07T11:54:31;35.30;54.40
15900;DHT22;8048;50.644;6.184;2023-09-07T11:56:57;34.90;54.70
15900;DHT22;8048;50.644;6.184;2023-09-07T11:59:22;34.70;53.60
15900;DHT22;8048;50.644;6.184;2023-09-07T12:01:48;34.60;54.90
15900;DHT22;8048;50.644;6.184;2023-09-07T12:04:14;34.90;55.40
15900;DHT22;8048;50.644;6.184;2023-09-07T12:06:40;34.80;56.00
15900;DHT22;8048;50.644;6.184;2023-09-07T12:09:06;34.80;55.90
15900;DHT22;8048;50.644;6.184;2023-09-07T12:11:33;35.00;54.80
15900;DHT22;8048;50.644;6.184;2023-09-07T12:13:59;34.90;54.70
15900;DHT22;8048;50.644;6.184;2023-09-07T12:16:28;35.30;55.60
15900;DHT22;8048;50.644;6.184;2023-09-07T12:18:54;35.40;55.20
15900;DHT22;8048;50.644;6.184;2023-09-07T12:21:20;35.90;56.20
15900;DHT22;8048;50.644;6.184;2023-09-07T12:23:45;36.40;55.50
15900;DHT22;8048;50.644;6.184;2023-09-07T12:26:12;36.70;50.50
15900;DHT22;8048;50.644;6.184;2023-09-07T12:28:39;36.70;50.50
15900;DHT22;8048;50.644;6.184;2023-09-07T12:31:05;36.40;49.90
15900;DHT22;8048;50.644;6.184;2023-09-07T12:33:30;36.40;49.90
15900;DHT22;8048;50.644;6.184;2023-09-07T12:35:57;37.10;52.20
15900;DHT22;8048;50.644;6.184;2023-09-07T12:38:22;37.70;49.90
15900;DHT22;8048;50.644;6.184;2023-09-07T12:40:52;38.20;53.40
15900;DHT22;8048;50.644;6.184;2023-09-07T12:43:18;38.10;48.40
15900;DHT22;8048;50.644;6.184;2023-09-07T12:45:45;37.90;47.60
15900;DHT22;8048;50.644;6.184;2023-09-07T12:48:10;37.90;52.20
15900;DHT22;8048;50.644;6.184;2023-09-07T12:50:36;38.10;50.90
15900;DHT22;8048;50.644;6.184;2023-09-07T12:53:02;37.90;49.50
15900;DHT22;8048;50.644;6.184;2023-09-07T12:55:27;38.40;51.20
15900;DHT22;8048;50.644;6.184;2023-09-07T12:57:55;38.60;49.30
15900;DHT22;8048;50.644;6.184;2023-09-07T13:00:20;39.00;53.00
15900;DHT22;8048;50.644;6.184;2023-09-07T13:02:46;39.40;50.00
15900;DHT22;8048;50.644;6.184;2023-09-07T13:05:11;39.20;47.20
15900;DHT22;8048;50.644;6.184;2023-09-07T13:07:37;38.50;47.10
15900;DHT22;8048;50.644;6.184;2023-09-07T13:10:03;38.20;47.20
15900;DHT22;8048;50.644;6.184;2023-09-07T13:12:31;37.90;47.70
15900;DHT22;8048;50.644;6.184;2023-09-07T13:14:56;38.10;47.40
15900;DHT22;8048;50.644;6.184;2023-09-07T13:17:22;37.80;48.10
15900;DHT22;8048;50.644;6.184;2023-09-07T13:19:47;38.10;50.60
15900;DHT22;8048;50.644;6.184;2023-09-07T13:22:13;38.50;48.10
15900;DHT22;8048;50.644;6.184;2023-09-07T13:24:39;38.40;46.00
15900;DHT22;8048;50.644;6.184;2023-09-07T13:27:04;38.40;45.40
15900;DHT22;8048;50.644;6.184;2023-09-07T13:29:33;38.60;47.20
15900;DHT22;8048;50.644;6.184;2023-09-07T13:31:59;38.70;46.70
15900;DHT22;8048;50.644;6.184;2023-09-07T13:34:25;39.10;45.70
15900;DHT22;8048;50.644;6.184;2023-09-07T13:36:50;39.10;47.40
15900;DHT22;8048;50.644;6.184;2023-09-07T13:39:16;39.00;46.30
15900;DHT22;8048;50.644;6.184;2023-09-07T13:41:42;39.20;44.00
15900;DHT22;8048;50.644;6.184;2023-09-07T13:44:07;38.80;41.00
15900;DHT22;8048;50.644;6.184;2023-09-07T13:46:33;38.60;40.50
15900;DHT22;8048;50.644;6.184;2023-09-07T13:48:59;38.30;40.10
15900;DHT22;8048;50.644;6.184;2023-09-07T13:51:25;38.00;38.50
15900;DHT22;8048;50.644;6.184;2023-09-07T13:53:51;37.70;43.60
15900;DHT22;8048;50.644;6.184;2023-09-07T13:56:18;37.90;41.30
15900;DHT22;8048;50.644;6.184;2023-09-07T13:58:43;37.80;38.80
15900;DHT22;8048;50.644;6.184;2023-09-07T14:01:09;37.60;40.90
15900;DHT22;8048;50.644;6.184;2023-09-07T14:03:35;37.50;39.70
15900;DHT22;8048;50.644;6.184;2023-09-07T14:06:01;37.30;39.50
15900;DHT22;8048;50.644;6.184;2023-09-07T14:08:27;36.40;38.80
15900;DHT22;8048;50.644;6.184;2023-09-07T14:10:52;36.30;39.80
15900;DHT22;8048;50.644;6.184;2023-09-07T14:13:18;36.40;41.90
15900;DHT22;8048;50.644;6.184;2023-09-07T14:15:44;36.80;39.90
15900;DHT22;8048;50.644;6.184;2023-09-07T14:18:10;36.70;43.30
15900;DHT22;8048;50.644;6.184;2023-09-07T14:20:36;37.20;41.60
15900;DHT22;8048;50.644;6.184;2023-09-07T14:23:01;37.40;41.30
15900;DHT22;8048;50.644;6.184;2023-09-07T14:25:27;37.20;39.30
15900;DHT22;8048;50.644;6.184;2023-09-07T14:27:53;37.00;40.70
15900;DHT22;8048;50.644;6.184;2023-09-07T14:30:18;37.20;42.40
15900;DHT22;8048;50.644;6.184;2023-09-07T14:32:44;37.20;43.10
15900;DHT22;8048;50.644;6.184;2023-09-07T14:35:12;37.40;42.60
15900;DHT22;8048;50.644;6.184;2023-09-07T14:37:38;37.50;41.80
15900;DHT22;8048;50.644;6.184;2023-09-07T14:40:04;37.60;42.80
15900;DHT22;8048;50.644;6.184;2023-09-07T14:42:29;37.90;43.90
15900;DHT22;8048;50.644;6.184;2023-09-07T14:44:55;38.00;41.80
15900;DHT22;8048;50.644;6.184;2023-09-07T14:47:22;38.10;43.60
15900;DHT22;8048;50.644;6.184;2023-09-07T14:49:51;38.00;43.60
15900;DHT22;8048;50.644;6.184;2023-09-07T14:52:17;38.00;43.20
15900;DHT22;8048;50.644;6.184;2023-09-07T14:54:43;38.10;43.90
15900;DHT22;8048;50.644;6.184;2023-09-07T14:57:09;38.10;43.20
15900;DHT22;8048;50.644;6.184;2023-09-07T14:59:34;37.60;43.30
15900;DHT22;8048;50.644;6.184;2023-09-07T15:02:00;37.60;43.10
15900;DHT22;8048;50.644;6.184;2023-09-07T15:04:25;37.40;42.70
15900;DHT22;8048;50.644;6.184;2023-09-07T15:06:51;36.90;42.90
15900;DHT22;8048;50.644;6.184;2023-09-07T15:09:17;36.60;43.60
15900;DHT22;8048;50.644;6.184;2023-09-07T15:11:42;36.40;43.40
15900;DHT22;8048;50.644;6.184;2023-09-07T15:14:08;36.50;45.70
15900;DHT22;8048;50.644;6.184;2023-09-07T15:16:34;36.50;42.50
15900;DHT22;8048;50.644;6.184;2023-09-07T15:18:59;36.70;44.80
15900;DHT22;8048;50.644;6.184;2023-09-07T15:21:25;36.80;44.00
15900;DHT22;8048;50.644;6.184;2023-09-07T15:23:51;37.00;44.60
15900;DHT22;8048;50.644;6.184;2023-09-07T15:26:17;36.40;42.60
15900;DHT22;8048;50.644;6.184;2023-09-07T15:28:42;36.40;44.20
15900;DHT22;8048;50.644;6.184;2023-09-07T15:31:08;36.40;44.90
15900;DHT22;8048;50.644;6.184;2023-09-07T15:33:34;36.50;44.50
15900;DHT22;8048;50.644;6.184;2023-09-07T15:36:00;36.40;44.30
15900;DHT22;8048;50.644;6.184;2023-09-07T15:38:26;36.30;45.20
15900;DHT22;8048;50.644;6.184;2023-09-07T15:40:53;35.90;45.40
15900;DHT22;8048;50.644;6.184;2023-09-07T15:43:19;35.80;46.60